< < Back
Terminal Aerodrome Forecast


Current Version              Previous Versions:   1  2  3  4  5  6  7  8  9  

Terminal Aerodrome Forecast

119
FTUS42 KGSP 202335
TAFGSP
TAF
KGSP 202335Z 2100/2124 21012KT P6SM SCT030 SCT100
     FM210200 25005KT P6SM SCT100 SCT250
     FM210700 27005KT P6SM SCT200
     FM211500 25009KT P6SM SCT200
     FM212000 24011KT P6SM FEW050 SCT200=



Latest METAR

550
SAUS70 KWBC 210600 RRW
MTRGSP
METAR KGSP 210553Z AUTO 35006KT 10SM CLR 12/09 A2979 RMK AO2 SLP080
T01220094 10183 20122 51020


USA.gov is the U.S. government's official web portal to all federal, state and local government web resources and services.